Time;durP1;ratioP1;P1;durP2;ratioP2;P2;SDS_P1;SDS_P2;PMS_P1;PMS_P2;Temp;Humidity;BMP_temperature;BMP_pressure;BME280_temperature;BME280_humidity;BME280_pressure;Samples;Min_cycle;Max_cycle;Signal;HPM_P1;HPM_P2
2021/09/03 00:00:23;;;;;;;6.82;4.57;;;13.20;99.90;;;;;;4989189;28;20030;-83
2021/09/03 00:02:53;;;;;;;8.00;4.07;;;13.10;99.90;;;;;;4979720;28;20369;-83
2021/09/03 00:05:21;;;;;;;8.43;4.80;;;13.00;99.90;;;;;;4986314;28;20042;-83
2021/09/03 00:07:48;;;;;;;7.63;4.47;;;12.90;99.90;;;;;;5006547;28;20072;-83
2021/09/03 00:10:17;;;;;;;9.85;5.13;;;12.90;99.90;;;;;;4999221;28;20034;-83
2021/09/03 00:12:44;;;;;;;10.40;4.90;;;12.80;99.90;;;;;;5000219;28;20050;-83
2021/09/03 00:15:12;;;;;;;11.32;6.68;;;12.70;99.90;;;;;;4983703;28;20039;-83
2021/09/03 00:17:39;;;;;;;10.48;5.18;;;12.70;99.90;;;;;;4986728;28;20042;-83
2021/09/03 00:20:09;;;;;;;8.25;5.57;;;12.70;99.90;;;;;;5009441;28;20037;-82
2021/09/03 00:22:36;;;;;;;9.68;5.43;;;12.60;99.90;;;;;;4998681;28;20026;-83
2021/09/03 00:25:04;;;;;;;8.98;5.25;;;12.60;99.90;;;;;;4983966;28;20031;-83
2021/09/03 00:27:30;;;;;;;8.50;5.70;;;12.50;99.90;;;;;;4998847;28;20379;-83
2021/09/03 00:29:56;;;;;;;13.38;6.25;;;12.50;99.90;;;;;;4984292;28;20037;-82
2021/09/03 00:32:22;;;;;;;12.35;6.97;;;12.50;99.90;;;;;;4999299;28;20030;-82
2021/09/03 00:34:49;;;;;;;10.60;6.50;;;12.50;99.90;;;;;;4999372;28;20042;-83
2021/09/03 00:37:16;;;;;;;9.18;5.85;;;12.50;99.90;;;;;;5000127;28;20234;-83
2021/09/03 00:39:42;;;;;;;9.07;4.97;;;12.40;99.90;;;;;;5000894;28;20034;-84
2021/09/03 00:42:11;;;;;;;7.35;5.10;;;12.40;99.90;;;;;;5000790;28;20046;-84
2021/09/03 00:44:39;;;;;;;7.57;5.35;;;12.30;99.90;;;;;;4998839;28;20042;-83
2021/09/03 00:47:05;;;;;;;8.48;5.13;;;12.30;99.90;;;;;;4983195;28;20027;-83
2021/09/03 00:49:32;;;;;;;11.27;6.25;;;12.30;99.90;;;;;;4979217;28;20035;-84
2021/09/03 00:52:03;;;;;;;10.23;5.63;;;12.30;99.90;;;;;;4982581;28;20049;-84
2021/09/03 00:54:31;;;;;;;8.57;5.18;;;12.20;99.90;;;;;;4998707;28;20054;-83
2021/09/03 00:56:59;;;;;;;10.75;6.00;;;12.20;99.90;;;;;;4985369;28;20043;-83
2021/09/03 00:59:27;;;;;;;8.13;5.05;;;12.10;99.90;;;;;;4978560;28;20035;-83
2021/09/03 01:01:53;;;;;;;10.85;6.15;;;12.10;99.90;;;;;;4961574;28;20046;-82
2021/09/03 01:04:20;;;;;;;9.00;5.50;;;12.20;99.90;;;;;;4992099;28;20038;-82
2021/09/03 01:06:47;;;;;;;8.55;5.45;;;12.20;99.90;;;;;;4997554;28;20035;-82
2021/09/03 01:09:13;;;;;;;7.55;4.70;;;12.10;99.90;;;;;;4993889;28;20037;-84
2021/09/03 01:11:40;;;;;;;9.60;5.70;;;12.10;99.90;;;;;;4978582;28;20046;-82
2021/09/03 01:14:06;;;;;;;10.63;5.63;;;12.00;99.90;;;;;;4988836;28;20499;-82
2021/09/03 01:16:32;;;;;;;10.90;5.90;;;12.00;99.90;;;;;;4994825;28;20041;-83
2021/09/03 01:18:59;;;;;;;9.00;5.28;;;12.00;99.90;;;;;;4977741;28;20042;-82
2021/09/03 01:21:26;;;;;;;8.63;5.25;;;12.00;99.90;;;;;;4987473;28;20491;-84
2021/09/03 01:23:53;;;;;;;9.88;5.97;;;11.90;99.90;;;;;;4994674;28;20042;-82
2021/09/03 01:26:19;;;;;;;8.68;5.00;;;11.80;99.90;;;;;;4996642;28;20035;-82
2021/09/03 01:28:49;;;;;;;8.77;5.90;;;11.80;99.90;;;;;;4997019;28;20038;-83
2021/09/03 01:31:15;;;;;;;10.02;5.07;;;11.80;99.90;;;;;;4988680;28;20038;-83
2021/09/03 01:33:42;;;;;;;10.95;5.72;;;11.60;99.90;;;;;;4976626;28;20047;-83
2021/09/03 01:36:08;;;;;;;8.18;5.00;;;11.60;99.90;;;;;;4975769;28;20058;-82
2021/09/03 01:38:35;;;;;;;8.15;5.85;;;11.60;99.90;;;;;;4975838;28;20038;-82
2021/09/03 01:41:01;;;;;;;8.13;5.20;;;11.60;99.90;;;;;;4975224;28;20046;-81
2021/09/03 01:43:27;;;;;;;9.40;5.68;;;11.60;99.90;;;;;;4975619;28;20387;-82
2021/09/03 01:45:53;;;;;;;10.18;6.50;;;11.60;99.90;;;;;;4976321;28;20042;-83
2021/09/03 01:48:19;;;;;;;9.32;5.78;;;11.60;99.90;;;;;;4975932;28;20031;-82
2021/09/03 01:50:46;;;;;;;10.45;6.70;;;11.60;99.90;;;;;;4982552;28;20035;-83
2021/09/03 01:53:12;;;;;;;11.70;5.85;;;11.40;99.90;;;;;;4992596;28;20042;-82
2021/09/03 01:55:38;;;;;;;685.10;121.03;;;11.40;99.90;;;;;;4978229;28;20034;-82
2021/09/03 01:58:04;;;;;;;1999.90;999.90;;;11.20;99.90;;;;;;4983446;28;20039;-82
2021/09/03 02:00:30;;;;;;;1999.90;999.90;;;11.30;99.90;;;;;;4981519;28;20026;-82
2021/09/03 02:02:57;;;;;;;1999.90;999.90;;;11.20;99.90;;;;;;4993369;28;20042;-82
2021/09/03 02:05:23;;;;;;;1999.90;999.90;;;11.30;99.90;;;;;;4993112;28;20041;-82
2021/09/03 02:07:49;;;;;;;1999.90;999.90;;;11.20;99.90;;;;;;4991872;28;20034;-82
2021/09/03 02:10:15;;;;;;;1999.90;999.90;;;11.20;99.90;;;;;;4991696;28;20144;-83
2021/09/03 02:12:41;;;;;;;1999.90;999.90;;;11.10;99.90;;;;;;4981991;28;20035;-83
2021/09/03 02:15:09;;;;;;;1999.90;999.90;;;11.10;99.90;;;;;;4991691;28;20034;-82
2021/09/03 02:17:35;;;;;;;1999.90;999.90;;;11.10;99.90;;;;;;4986740;28;20041;-84
2021/09/03 02:20:02;;;;;;;1999.90;999.90;;;11.00;99.90;;;;;;4988067;28;20427;-83
2021/09/03 02:22:29;;;;;;;1999.90;999.90;;;11.00;99.90;;;;;;4990774;28;20038;-83
2021/09/03 02:24:55;;;;;;;1999.90;999.90;;;10.90;99.90;;;;;;4975323;28;20370;-83
2021/09/03 02:27:21;;;;;;;1999.90;999.90;;;11.00;99.90;;;;;;4974333;28;20045;-83
2021/09/03 02:29:47;;;;;;;1999.90;999.90;;;10.90;99.90;;;;;;4974385;28;20037;-81
2021/09/03 02:32:16;;;;;;;1999.90;999.90;;;10.90;99.90;;;;;;4988421;28;20045;-84
2021/09/03 02:34:43;;;;;;;1999.90;999.90;;;10.90;99.90;;;;;;4990957;28;20065;-82
2021/09/03 02:37:09;;;;;;;1999.90;999.90;;;11.00;99.90;;;;;;4985912;28;20027;-83
2021/09/03 02:39:35;;;;;;;1999.90;999.90;;;11.00;99.90;;;;;;4988434;28;20117;-82
2021/09/03 02:42:01;;;;;;;1999.90;999.90;;;11.00;99.90;;;;;;4979723;28;20053;-82
2021/09/03 02:44:27;;;;;;;1999.90;999.90;;;11.00;99.90;;;;;;4979623;28;20373;-82
2021/09/03 02:46:54;;;;;;;1999.90;999.90;;;11.00;99.90;;;;;;4986868;28;20046;-83
2021/09/03 02:49:20;;;;;;;1999.90;999.90;;;11.10;99.90;;;;;;4993377;28;20033;-83
2021/09/03 02:51:46;;;;;;;1999.90;999.90;;;11.10;99.90;;;;;;4992689;28;20049;-83
2021/09/03 02:54:12;;;;;;;1999.90;999.90;;;11.00;99.90;;;;;;4987155;28;20469;-82
2021/09/03 02:56:39;;;;;;;1999.90;999.90;;;11.00;99.90;;;;;;4973983;28;20058;-82
2021/09/03 02:59:05;;;;;;;1999.90;999.90;;;11.00;99.90;;;;;;4989464;28;20392;-82
2021/09/03 03:01:31;;;;;;;1999.90;999.90;;;11.00;99.90;;;;;;4987772;28;20035;-83
2021/09/03 03:03:57;;;;;;;1999.90;999.90;;;11.10;99.90;;;;;;4972653;28;20094;-82
2021/09/03 03:06:23;;;;;;;1999.90;999.90;;;11.00;99.90;;;;;;4973480;28;20046;-82
2021/09/03 03:08:50;;;;;;;1999.90;999.90;;;11.00;99.90;;;;;;4988702;28;20034;-82
2021/09/03 03:11:16;;;;;;;1999.90;999.90;;;10.90;99.90;;;;;;4996921;28;20046;-82
2021/09/03 03:13:51;;;;;;;1999.90;999.90;;;10.90;99.90;;;;;;5011319;28;20032;-82
2021/09/03 03:16:17;;;;;;;1999.90;999.90;;;10.80;99.90;;;;;;5004482;28;20038;-82
2021/09/03 03:18:43;;;;;;;1999.90;999.90;;;10.80;99.90;;;;;;5009836;28;20026;-81
2021/09/03 03:21:09;;;;;;;1999.90;999.90;;;10.70;99.90;;;;;;5005950;28;20037;-82
2021/09/03 03:23:36;;;;;;;1999.90;999.90;;;10.70;99.90;;;;;;4980432;28;20027;-82
2021/09/03 03:26:02;;;;;;;1999.90;999.90;;;10.50;99.90;;;;;;4985408;28;20461;-82
2021/09/03 03:28:28;;;;;;;1999.90;999.90;;;10.60;99.90;;;;;;4975724;28;20042;-82
2021/09/03 03:30:55;;;;;;;1999.90;999.90;;;10.60;99.90;;;;;;4993513;28;20038;-82
2021/09/03 03:33:22;;;;;;;1999.90;999.90;;;10.60;99.90;;;;;;4974181;28;20034;-82
2021/09/03 03:35:48;;;;;;;1999.90;999.90;;;10.60;99.90;;;;;;4990008;28;20057;-82
2021/09/03 03:38:14;;;;;;;1999.90;999.90;;;10.60;99.90;;;;;;4973306;28;20030;-81
2021/09/03 03:40:40;;;;;;;1999.90;999.90;;;10.50;99.90;;;;;;4979684;28;20068;-83
2021/09/03 03:43:07;;;;;;;1999.90;999.90;;;10.50;99.90;;;;;;4993520;28;20042;-82
2021/09/03 03:45:33;;;;;;;1999.90;999.90;;;10.40;99.90;;;;;;4982102;28;20396;-82
2021/09/03 03:47:59;;;;;;;1999.90;999.90;;;10.40;99.90;;;;;;4974079;28;20054;-81
2021/09/03 03:50:25;;;;;;;1999.90;999.90;;;10.30;99.90;;;;;;4974853;28;20054;-82
2021/09/03 03:52:51;;;;;;;1999.90;999.90;;;10.30;99.90;;;;;;4985465;28;20045;-83
2021/09/03 03:55:18;;;;;;;443.70;127.80;;;10.30;99.90;;;;;;4975949;28;20043;-81
2021/09/03 03:57:44;;;;;;;254.40;145.32;;;10.40;99.90;;;;;;4983897;28;20038;-82
2021/09/03 04:00:11;;;;;;;415.77;153.75;;;10.40;99.90;;;;;;4983369;28;20444;-82
2021/09/03 04:02:37;;;;;;;188.15;167.20;;;10.50;99.90;;;;;;4997466;28;20037;-83
2021/09/03 04:05:03;;;;;;;228.95;119.75;;;10.50;99.90;;;;;;4995608;28;20039;-82
2021/09/03 04:07:29;;;;;;;127.85;64.65;;;10.50;99.90;;;;;;4996031;28;20110;-82
2021/09/03 04:09:56;;;;;;;276.55;137.02;;;10.50;99.90;;;;;;4984223;28;20035;-82
2021/09/03 04:12:22;;;;;;;396.48;118.63;;;10.50;99.90;;;;;;4996731;28;20388;-82
2021/09/03 04:14:48;;;;;;;405.50;103.35;;;10.50;99.90;;;;;;4989509;28;20047;-83
2021/09/03 04:17:15;;;;;;;284.80;118.30;;;10.50;99.90;;;;;;4996275;28;20035;-83
2021/09/03 04:19:41;;;;;;;280.42;126.20;;;10.50;99.90;;;;;;4989888;28;20025;-84
2021/09/03 04:22:07;;;;;;;275.25;130.10;;;10.50;99.90;;;;;;4983643;28;20033;-84
2021/09/03 04:24:33;;;;;;;246.98;127.22;;;10.40;99.90;;;;;;4982050;28;20035;-83
2021/09/03 04:27:00;;;;;;;1080.78;555.67;;;10.40;99.90;;;;;;4999020;28;20027;-83
2021/09/03 04:29:27;;;;;;;321.83;102.63;;;10.30;99.90;;;;;;4997109;28;20065;-83
2021/09/03 04:31:54;;;;;;;15.43;10.45;;;10.40;99.90;;;;;;4983272;28;20031;-83
2021/09/03 04:34:20;;;;;;;13.80;8.57;;;10.30;99.90;;;;;;4976629;28;20039;-83
2021/09/03 04:36:46;;;;;;;14.73;10.35;;;10.30;99.90;;;;;;4982745;28;20058;-82
2021/09/03 04:39:12;;;;;;;16.77;9.77;;;10.30;99.90;;;;;;4994250;28;20041;-84
2021/09/03 04:41:38;;;;;;;15.00;10.40;;;10.30;99.90;;;;;;4991128;28;20034;-83
2021/09/03 04:44:05;;;;;;;14.30;9.77;;;10.30;99.90;;;;;;4990732;28;20038;-82
2021/09/03 04:46:31;;;;;;;15.85;10.43;;;10.10;99.90;;;;;;4993658;28;20034;-82
2021/09/03 04:48:57;;;;;;;14.48;9.73;;;10.00;99.90;;;;;;4993179;28;20034;-87
2021/09/03 04:51:23;;;;;;;14.25;10.43;;;10.10;99.90;;;;;;4976129;28;20494;-81
2021/09/03 04:53:50;;;;;;;20.13;11.63;;;10.10;99.90;;;;;;4986295;28;20038;-80
2021/09/03 04:56:16;;;;;;;19.50;11.77;;;10.20;99.90;;;;;;4986056;28;20046;-82
2021/09/03 04:58:42;;;;;;;19.88;12.20;;;10.30;99.90;;;;;;4976508;28;20030;-82
2021/09/03 05:01:08;;;;;;;21.58;12.68;;;10.30;99.90;;;;;;4989398;28;20038;-82
2021/09/03 05:03:34;;;;;;;19.30;12.27;;;10.30;99.90;;;;;;4988923;28;20034;-81
2021/09/03 05:06:00;;;;;;;20.98;12.40;;;10.40;99.90;;;;;;4976055;28;20054;-82
2021/09/03 05:08:26;;;;;;;18.92;12.40;;;10.40;99.90;;;;;;4980528;28;20030;-81
2021/09/03 05:10:53;;;;;;;15.57;10.65;;;10.40;99.90;;;;;;4994109;28;20381;-81
2021/09/03 05:13:19;;;;;;;15.35;10.45;;;10.40;99.90;;;;;;4985611;28;20042;-81
2021/09/03 05:15:46;;;;;;;12.60;9.52;;;10.30;99.90;;;;;;4984747;28;20034;-81
2021/09/03 05:18:12;;;;;;;17.75;11.05;;;10.30;99.90;;;;;;4983553;28;20031;-82
2021/09/03 05:20:38;;;;;;;13.70;9.95;;;10.40;99.90;;;;;;4985673;28;20031;-81
2021/09/03 05:23:04;;;;;;;16.25;11.00;;;10.40;99.90;;;;;;4981590;28;20384;-83
2021/09/03 05:25:31;;;;;;;14.68;9.95;;;10.50;99.90;;;;;;4994421;28;20050;-82
2021/09/03 05:27:57;;;;;;;14.73;10.13;;;10.50;99.90;;;;;;4987367;28;20030;-83
2021/09/03 05:30:23;;;;;;;14.95;10.63;;;11.00;99.90;;;;;;4992216;28;20468;-82
2021/09/03 05:32:49;;;;;;;13.30;9.20;;;11.90;99.90;;;;;;4983787;28;20053;-82
2021/09/03 05:35:16;;;;;;;55.55;13.05;;;12.80;99.90;;;;;;4992452;28;20065;-82
2021/09/03 05:37:42;;;;;;;9.73;7.03;;;13.80;99.90;;;;;;4988512;28;20042;-82
2021/09/03 05:40:09;;;;;;;10.80;6.93;;;14.70;99.90;;;;;;4978191;28;20030;-82
2021/09/03 05:42:36;;;;;;;8.63;5.95;;;15.50;99.90;;;;;;4992327;28;20045;-82
2021/09/03 05:45:03;;;;;;;9.77;6.95;;;16.40;98.10;;;;;;4992915;28;20031;-83
2021/09/03 05:47:29;;;;;;;10.15;7.65;;;17.00;95.30;;;;;;4994277;28;20395;-82
2021/09/03 05:49:56;;;;;;;9.30;6.53;;;17.20;93.90;;;;;;4976751;28;20480;-82
2021/09/03 05:52:22;;;;;;;10.43;6.97;;;17.20;93.70;;;;;;4974084;28;20031;-82
2021/09/03 05:54:48;;;;;;;10.20;6.45;;;17.30;93.50;;;;;;4990781;28;20046;-81
2021/09/03 05:57:14;;;;;;;9.07;6.32;;;17.20;93.40;;;;;;4980856;28;20381;-81
2021/09/03 05:59:41;;;;;;;7.57;6.78;;;17.40;92.90;;;;;;4983006;28;20041;-83
2021/09/03 06:02:07;;;;;;;8.73;6.70;;;17.50;92.50;;;;;;4974280;28;20465;-83
2021/09/03 06:04:33;;;;;;;9.27;6.82;;;17.40;92.40;;;;;;4981009;28;20034;-82
2021/09/03 06:06:59;;;;;;;9.30;6.22;;;17.40;92.70;;;;;;4989916;28;20034;-83
2021/09/03 06:09:25;;;;;;;10.93;7.20;;;17.70;92.10;;;;;;4991892;28;20046;-82
2021/09/03 06:11:52;;;;;;;10.32;6.93;;;18.60;91.10;;;;;;4990864;28;20061;-82
2021/09/03 06:14:19;;;;;;;8.43;6.82;;;20.30;85.00;;;;;;4990911;28;20211;-83
2021/09/03 06:16:45;;;;;;;7.97;6.72;;;20.10;83.60;;;;;;4990342;28;20063;-83
2021/09/03 06:19:11;;;;;;;9.40;6.90;;;19.90;83.10;;;;;;4991085;28;20103;-81
2021/09/03 06:21:37;;;;;;;8.65;6.72;;;19.60;83.80;;;;;;4990590;28;20027;-81
2021/09/03 06:24:27;;;;;;;7.47;6.00;;;19.60;84.00;;;;;;4992532;28;20037;-82
2021/09/03 06:26:50;;;;;;;7.47;6.05;;;19.60;83.60;;;;;;4989548;28;20399;-83
2021/09/03 06:29:37;;;;;;;7.68;6.05;;;19.70;82.60;;;;;;4991688;28;20032;-82
2021/09/03 06:32:07;;;;;;;9.57;6.60;;;19.60;83.80;;;;;;4992833;28;20041;-83
2021/09/03 06:34:35;;;;;;;8.00;6.80;;;20.20;81.40;;;;;;4991835;28;20049;-81
2021/09/03 06:37:02;;;;;;;8.45;6.68;;;20.10;81.80;;;;;;4985275;28;20049;-81
2021/09/03 06:39:28;;;;;;;7.40;6.65;;;19.90;82.70;;;;;;4991991;28;20050;-83
2021/09/03 06:41:55;;;;;;;8.40;6.88;;;19.90;83.40;;;;;;4996593;28;20049;-81
2021/09/03 06:44:21;;;;;;;7.13;6.22;;;19.90;83.40;;;;;;4999539;28;20049;-82
2021/09/03 06:46:47;;;;;;;6.65;5.47;;;19.70;84.00;;;;;;4999175;28;20073;-77
2021/09/03 06:49:13;;;;;;;9.45;6.85;;;20.10;83.30;;;;;;4996450;28;20031;-78
2021/09/03 06:51:40;;;;;;;6.35;5.65;;;20.20;83.00;;;;;;4992157;28;20049;-78
2021/09/03 06:54:06;;;;;;;8.82;6.22;;;20.20;83.00;;;;;;4989188;28;20035;-77
2021/09/03 06:56:32;;;;;;;11.50;6.47;;;20.50;81.80;;;;;;4990873;28;20026;-78
2021/09/03 06:59:00;;;;;;;7.07;5.80;;;20.50;81.30;;;;;;4990009;28;20046;-77
2021/09/03 07:01:26;;;;;;;8.20;6.03;;;20.40;81.00;;;;;;4988563;28;20027;-77
2021/09/03 07:03:52;;;;;;;6.88;5.63;;;20.20;81.60;;;;;;4989609;28;20050;-78
2021/09/03 07:06:19;;;;;;;7.13;6.03;;;20.30;81.50;;;;;;4978008;28;20057;-77
2021/09/03 07:08:45;;;;;;;8.00;5.28;;;20.30;80.70;;;;;;4974296;28;20420;-77
2021/09/03 07:11:11;;;;;;;7.82;5.60;;;20.60;79.70;;;;;;4981963;28;20495;-77
2021/09/03 07:13:37;;;;;;;9.00;5.43;;;20.60;79.00;;;;;;4975116;28;20038;-77
2021/09/03 07:16:04;;;;;;;7.47;5.47;;;20.80;78.70;;;;;;4981425;28;20030;-78
2021/09/03 07:18:30;;;;;;;11.05;5.70;;;20.90;77.60;;;;;;4987471;28;20031;-77
2021/09/03 07:20:57;;;;;;;7.10;4.93;;;21.20;77.50;;;;;;4979391;28;20465;-78
2021/09/03 07:23:23;;;;;;;7.57;5.40;;;21.60;74.30;;;;;;4975857;28;20037;-77
2021/09/03 07:25:50;;;;;;;11.25;5.15;;;22.20;73.50;;;;;;4982359;28;20034;-77
2021/09/03 07:28:16;;;;;;;8.65;5.20;;;22.10;72.60;;;;;;4983794;28;20080;-77
2021/09/03 07:30:43;;;;;;;5.53;4.50;;;21.80;74.20;;;;;;4974295;28;20039;-77
2021/09/03 07:33:09;;;;;;;5.07;4.28;;;22.10;73.60;;;;;;4985460;28;20460;-77
2021/09/03 07:35:35;;;;;;;6.50;4.90;;;21.80;73.60;;;;;;4981698;28;20043;-78
2021/09/03 07:38:03;;;;;;;5.50;4.68;;;21.60;74.60;;;;;;4980779;28;20145;-77
2021/09/03 07:40:32;;;;;;;5.38;4.45;;;21.60;74.10;;;;;;4984055;28;20039;-78
2021/09/03 07:43:06;;;;;;;4.95;4.40;;;21.10;75.90;;;;;;4976448;28;20050;-76
2021/09/03 07:45:37;;;;;;;8.02;4.53;;;20.60;77.20;;;;;;4987661;28;20543;-77
2021/09/03 07:48:05;;;;;;;6.32;4.80;;;20.80;77.90;;;;;;4977762;28;20039;-77
2021/09/03 07:50:33;;;;;;;5.43;4.57;;;21.60;77.40;;;;;;4982442;28;20034;-75
2021/09/03 07:53:01;;;;;;;5.43;4.70;;;22.30;74.60;;;;;;4982479;28;20039;-75
2021/09/03 07:55:27;;;;;;;8.23;4.43;;;21.50;76.90;;;;;;4976712;28;20042;-75
2021/09/03 07:57:53;;;;;;;7.30;4.55;;;21.30;78.30;;;;;;4991320;28;20033;-84
2021/09/03 08:00:19;;;;;;;13.52;6.22;;;21.70;77.10;;;;;;4980395;28;20038;-75
2021/09/03 08:02:45;;;;;;;12.05;5.22;;;21.20;77.40;;;;;;4993580;28;20030;-77
2021/09/03 08:05:12;;;;;;;7.53;4.93;;;21.30;77.70;;;;;;4989013;28;20035;-77
2021/09/03 08:07:41;;;;;;;6.15;4.55;;;21.20;77.90;;;;;;4981172;28;20369;-76
2021/09/03 08:10:13;;;;;;;5.22;4.00;;;21.00;78.10;;;;;;4992778;28;20046;-76
2021/09/03 08:12:40;;;;;;;6.80;5.05;;;21.50;78.00;;;;;;4994785;28;20042;-77
2021/09/03 08:15:08;;;;;;;6.53;4.35;;;21.30;78.20;;;;;;5000404;28;20042;-76
2021/09/03 08:17:35;;;;;;;6.80;4.43;;;21.60;77.10;;;;;;4990159;28;20065;-77
2021/09/03 08:20:03;;;;;;;7.07;4.78;;;21.30;77.90;;;;;;4977769;28;20471;-77
2021/09/03 08:22:29;;;;;;;6.28;4.18;;;21.70;78.10;;;;;;4995405;28;20507;-77
2021/09/03 08:24:55;;;;;;;5.88;4.50;;;21.70;78.20;;;;;;4976950;28;20519;-77
2021/09/03 08:27:21;;;;;;;5.13;4.20;;;22.30;76.80;;;;;;4976789;28;20457;-77
2021/09/03 08:29:48;;;;;;;5.18;4.10;;;22.70;78.90;;;;;;4976485;28;20034;-77
2021/09/03 08:32:15;;;;;;;5.68;3.97;;;24.20;72.70;;;;;;4984694;28;20045;-77
2021/09/03 08:34:42;;;;;;;5.40;3.67;;;25.20;68.50;;;;;;4980732;28;20038;-78
2021/09/03 08:37:09;;;;;;;5.80;4.80;;;25.50;66.70;;;;;;4993936;28;20041;-79
2021/09/03 08:39:36;;;;;;;4.55;3.72;;;24.90;68.00;;;;;;4975707;28;20046;-77
2021/09/03 08:42:03;;;;;;;7.32;4.90;;;25.60;67.80;;;;;;4979779;28;20038;-77
2021/09/03 08:44:33;;;;;;;4.70;3.95;;;26.90;65.00;;;;;;4988398;28;20047;-77
2021/09/03 08:47:00;;;;;;;5.60;3.63;;;26.60;56.90;;;;;;4981432;28;20049;-77
2021/09/03 08:49:27;;;;;;;4.80;3.67;;;25.90;59.40;;;;;;4993866;28;20069;-77
2021/09/03 08:51:53;;;;;;;4.60;3.55;;;25.40;58.40;;;;;;4976946;28;20042;-77
2021/09/03 08:54:21;;;;;;;4.30;3.03;;;25.90;59.90;;;;;;4982681;28;20099;-76
2021/09/03 08:56:47;;;;;;;3.05;2.28;;;26.40;57.70;;;;;;5009584;28;20042;-77
2021/09/03 08:59:14;;;;;;;5.57;3.60;;;27.00;56.00;;;;;;4991082;28;20031;-76
2021/09/03 09:01:41;;;;;;;4.25;2.80;;;27.20;53.70;;;;;;4975919;28;20030;-78
2021/09/03 09:04:14;;;;;;;5.60;3.17;;;26.30;55.80;;;;;;4975665;28;20034;-76
2021/09/03 09:07:03;;;;;;;4.47;3.35;;;26.40;54.40;;;;;;4975962;28;20043;-77
2021/09/03 09:09:30;;;;;;;5.35;3.25;;;26.10;54.60;;;;;;4976208;28;20039;-77
2021/09/03 09:12:11;;;;;;;4.32;3.15;;;26.60;55.40;;;;;;4990404;28;20031;-78
2021/09/03 09:15:03;;;;;;;4.90;2.67;;;26.50;53.20;;;;;;4985158;28;20047;-77
2021/09/03 09:17:40;;;;;;;4.15;3.10;;;26.60;56.30;;;;;;4975870;28;20035;-77
2021/09/03 09:20:11;;;;;;;4.28;3.35;;;26.30;53.00;;;;;;4977272;28;20054;-76
2021/09/03 09:22:55;;;;;;;3.50;2.63;;;26.30;52.90;;;;;;4992864;28;20042;-78
2021/09/03 09:25:35;;;;;;;5.63;3.40;;;25.90;54.30;;;;;;4993186;28;20045;-76
2021/09/03 09:28:19;;;;;;;6.15;2.92;;;26.50;53.50;;;;;;4993279;28;20384;-76
2021/09/03 09:30:45;;;;;;;5.03;3.15;;;26.80;53.60;;;;;;4983048;28;20038;-76
2021/09/03 09:33:15;;;;;;;5.72;3.58;;;27.10;53.20;;;;;;4976330;28;20031;-77
2021/09/03 09:35:50;;;;;;;4.25;3.00;;;27.00;52.90;;;;;;4993233;28;20053;-77
2021/09/03 09:38:19;;;;;;;4.97;3.95;;;26.70;53.10;;;;;;4991506;28;20030;-77
2021/09/03 09:40:56;;;;;;;6.72;4.75;;;26.50;54.30;;;;;;4992701;28;20031;-78
2021/09/03 09:43:44;;;;;;;4.22;3.38;;;26.20;52.90;;;;;;4996300;28;20053;-77
2021/09/03 09:46:17;;;;;;;4.70;3.25;;;26.00;53.10;;;;;;4988001;28;20045;-77
2021/09/03 09:48:49;;;;;;;4.88;3.70;;;26.00;53.50;;;;;;4982889;28;20035;-77
2021/09/03 09:51:29;;;;;;;8.15;3.92;;;26.30;52.70;;;;;;4973278;28;20054;-77
2021/09/03 09:54:03;;;;;;;5.03;3.30;;;26.50;51.50;;;;;;4974189;28;20037;-76
2021/09/03 09:56:34;;;;;;;7.15;3.90;;;26.60;52.00;;;;;;4974039;28;20046;-77
2021/09/03 09:59:04;;;;;;;5.60;3.63;;;24.60;53.50;;;;;;4974432;28;20054;-76
2021/09/03 10:01:33;;;;;;;6.60;3.08;;;24.10;54.20;;;;;;4977157;28;20038;-76
2021/09/03 10:04:13;;;;;;;5.63;4.35;;;24.10;55.70;;;;;;4991741;28;20031;-77
2021/09/03 10:06:41;;;;;;;5.65;4.10;;;24.50;54.00;;;;;;4973973;28;20042;-76
2021/09/03 10:09:10;;;;;;;4.70;3.17;;;24.30;53.50;;;;;;4981536;28;20407;-76
2021/09/03 10:11:37;;;;;;;5.40;3.22;;;24.20;53.90;;;;;;4984821;28;20060;-74
2021/09/03 10:14:05;;;;;;;8.30;3.65;;;24.10;54.10;;;;;;4980812;28;20022;-73
2021/09/03 10:16:32;;;;;;;5.00;3.25;;;23.90;54.60;;;;;;4973820;28;20038;-74
2021/09/03 10:19:01;;;;;;;7.45;3.45;;;23.90;54.90;;;;;;4988891;28;20049;-78
2021/09/03 10:21:28;;;;;;;7.00;3.47;;;23.90;55.30;;;;;;4991990;28;20037;-75
2021/09/03 10:24:00;;;;;;;6.13;3.58;;;24.20;54.80;;;;;;4992030;28;20046;-74
2021/09/03 10:26:30;;;;;;;8.82;3.70;;;23.90;54.70;;;;;;4990426;28;20057;-73
2021/09/03 10:29:14;;;;;;;6.73;3.57;;;24.10;54.20;;;;;;4990949;28;20345;-74
2021/09/03 10:34:55;;;;;;;5.03;3.03;;;24.00;56.10;;;;;;4973282;28;20042;-74
2021/09/03 10:37:27;;;;;;;3.78;2.83;;;24.30;53.30;;;;;;4979477;28;20043;-76
2021/09/03 10:40:07;;;;;;;5.57;3.60;;;24.00;53.00;;;;;;4981034;28;20078;-76
2021/09/03 10:42:48;;;;;;;5.07;2.92;;;24.00;53.80;;;;;;4986512;28;20476;-75
2021/09/03 10:45:22;;;;;;;7.22;3.47;;;24.10;53.10;;;;;;4973034;28;20472;-75
2021/09/03 10:47:58;;;;;;;5.85;3.45;;;24.10;54.00;;;;;;4973649;28;20027;-78
2021/09/03 10:50:47;;;;;;;4.65;3.10;;;24.10;53.70;;;;;;4973366;28;20472;-75
2021/09/03 10:53:32;;;;;;;4.68;3.40;;;23.90;54.30;;;;;;4976582;28;20031;-74
2021/09/03 10:56:01;;;;;;;3.65;3.00;;;23.80;55.00;;;;;;4973655;28;20035;-76
2021/09/03 10:58:36;;;;;;;5.78;3.13;;;24.10;54.80;;;;;;4979482;28;20042;-75
2021/09/03 11:01:11;;;;;;;4.10;2.85;;;24.50;54.50;;;;;;4995676;28;20026;-75
2021/09/03 11:03:51;;;;;;;5.22;3.15;;;24.30;53.40;;;;;;4981966;28;20392;-75
2021/09/03 11:06:23;;;;;;;4.65;2.80;;;24.40;53.80;;;;;;4973994;28;20487;-75
2021/09/03 11:08:52;;;;;;;4.50;3.38;;;24.70;53.70;;;;;;4991072;28;20037;-75
2021/09/03 11:11:27;;;;;;;3.78;3.08;;;24.90;53.30;;;;;;4993968;28;20042;-76
2021/09/03 11:13:58;;;;;;;4.90;3.38;;;24.90;52.10;;;;;;4994454;28;20030;-76
2021/09/03 11:16:48;;;;;;;4.93;3.05;;;24.90;52.60;;;;;;4996183;28;20042;-75
2021/09/03 11:19:15;;;;;;;4.47;2.78;;;24.60;52.80;;;;;;4985713;28;20046;-75
2021/09/03 11:21:49;;;;;;;3.70;2.90;;;24.90;53.80;;;;;;4983802;28;20043;-74
2021/09/03 11:24:18;;;;;;;8.57;3.10;;;25.30;52.90;;;;;;5000288;28;20030;-75
2021/09/03 11:26:47;;;;;;;5.78;3.50;;;25.20;52.60;;;;;;4979919;28;20035;-75
2021/09/03 11:29:28;;;;;;;4.28;2.95;;;24.90;51.60;;;;;;4976997;28;20449;-74
2021/09/03 11:31:54;;;;;;;6.15;3.03;;;24.60;53.60;;;;;;4981862;28;20030;-75
2021/09/03 11:34:39;;;;;;;4.40;3.30;;;24.70;54.20;;;;;;4993708;28;20039;-76
2021/09/03 11:37:05;;;;;;;4.55;2.95;;;24.70;52.90;;;;;;4977056;28;20499;-75
2021/09/03 11:39:33;;;;;;;4.15;3.13;;;24.30;53.30;;;;;;4976596;28;20035;-75
2021/09/03 11:42:00;;;;;;;4.03;2.78;;;24.50;53.20;;;;;;4976941;28;20038;-74
2021/09/03 11:44:26;;;;;;;4.22;2.75;;;24.70;53.30;;;;;;4975709;28;20034;-76
2021/09/03 11:46:53;;;;;;;5.43;3.05;;;24.90;51.90;;;;;;4977512;28;20464;-75
2021/09/03 11:49:23;;;;;;;4.82;2.22;;;24.60;51.70;;;;;;4975984;28;20027;-75
2021/09/03 11:52:05;;;;;;;4.22;2.55;;;24.90;51.60;;;;;;4976864;28;20031;-78
2021/09/03 11:54:32;;;;;;;4.15;2.38;;;24.80;51.00;;;;;;4976357;28;20479;-75
2021/09/03 11:56:59;;;;;;;2.85;2.25;;;25.00;51.20;;;;;;4976760;28;20527;-75
2021/09/03 11:59:25;;;;;;;3.72;2.35;;;25.10;50.50;;;;;;4984139;28;20034;-76
2021/09/03 12:02:03;;;;;;;6.00;2.53;;;25.20;50.40;;;;;;4981450;28;20368;-76
2021/09/03 12:04:30;;;;;;;3.20;1.88;;;25.00;50.10;;;;;;4994062;28;20073;-78
2021/09/03 12:06:57;;;;;;;3.92;2.83;;;24.90;50.50;;;;;;4983678;28;20031;-76
2021/09/03 12:09:34;;;;;;;6.95;3.08;;;24.90;50.70;;;;;;4984813;28;20044;-76
2021/09/03 12:12:00;;;;;;;3.83;2.95;;;25.00;50.20;;;;;;4993052;28;20476;-75
2021/09/03 12:14:27;;;;;;;4.78;3.00;;;24.90;49.70;;;;;;4986812;28;20037;-74
2021/09/03 12:16:53;;;;;;;4.03;2.55;;;25.00;50.70;;;;;;4987661;28;20468;-75
2021/09/03 12:19:24;;;;;;;5.65;2.60;;;25.10;49.90;;;;;;4991775;28;20463;-75
2021/09/03 12:21:50;;;;;;;3.42;2.33;;;25.00;50.00;;;;;;4992751;28;20446;-74
2021/09/03 12:24:16;;;;;;;3.60;2.40;;;25.30;50.10;;;;;;4991879;28;20030;-75
2021/09/03 12:26:49;;;;;;;3.15;2.38;;;25.30;49.80;;;;;;4976451;28;20046;-75
2021/09/03 12:29:43;;;;;;;6.22;2.80;;;25.10;48.50;;;;;;4991499;28;20034;-75
2021/09/03 12:32:11;;;;;;;6.10;2.63;;;25.30;49.70;;;;;;4984346;28;20051;-74
2021/09/03 12:34:39;;;;;;;3.33;2.17;;;25.20;49.50;;;;;;4993541;28;20050;-73
2021/09/03 12:37:09;;;;;;;3.23;2.50;;;25.20;50.00;;;;;;4994791;28;20038;-78
2021/09/03 12:39:36;;;;;;;2.95;2.22;;;25.20;49.50;;;;;;4995974;28;20288;-78
2021/09/03 12:42:13;;;;;;;4.38;2.60;;;25.10;49.40;;;;;;4989475;28;20030;-78
2021/09/03 12:44:39;;;;;;;4.38;2.63;;;24.90;49.80;;;;;;4976557;28;20507;-78